Estación de Alto del Carmen

Ultimos registro cada 15 minutos 49
Estación Fecha / Hora Temperatura Humedad Lluvia Velocidad Dirección Radiación Presion
49 Alto del Carmen 02-05-2026 12:00 30,8 3 0 1,8 22 710 1012,4
48 Alto del Carmen 02-05-2026 11:45 30,4 3 0 1,3 38 698 1012,6
47 Alto del Carmen 02-05-2026 11:30 29,5 4 0 0,9 55 680 1012,9
46 Alto del Carmen 02-05-2026 11:15 28,5 4 0 0 56 661 1013,3
45 Alto del Carmen 02-05-2026 11:00 27 6 0 0,9 56 635 1013,3
44 Alto del Carmen 02-05-2026 10:45 25,6 8 0 0 56 610 1013,6
43 Alto del Carmen 02-05-2026 10:30 24 8 0 0,4 57 577 1013,8
42 Alto del Carmen 02-05-2026 10:15 20,6 13 0 0,4 57 541 1014
41 Alto del Carmen 02-05-2026 10:00 15,9 21 0 0 57 504 1014,4
40 Alto del Carmen 02-05-2026 09:45 9,7 44 0 0 57 462 1014
39 Alto del Carmen 02-05-2026 09:30 7,3 46 0 0,4 57 23 1014,1
38 Alto del Carmen 02-05-2026 09:15 7,1 51 0 0 57 21 1014
37 Alto del Carmen 02-05-2026 09:00 6,6 57 0 0,4 57 19 1013,8
36 Alto del Carmen 02-05-2026 08:45 6,4 53 0 0,4 57 19 1013,9
35 Alto del Carmen 02-05-2026 08:30 6,3 52 0 0,4 57 18 1013,9
34 Alto del Carmen 02-05-2026 08:15 5,8 57 0 0,9 55 16 1013,7
33 Alto del Carmen 02-05-2026 08:00 5,9 54 0 0 55 14 1013,5
32 Alto del Carmen 02-05-2026 07:45 6,1 51 0 0 55 11 1013,4
31 Alto del Carmen 02-05-2026 07:30 5,3 56 0 0,4 53 9 1013,3
30 Alto del Carmen 02-05-2026 07:15 5,3 54 0 0 54 5 1013,1
29 Alto del Carmen 02-05-2026 07:00 5,1 55 0 0,4 53 0 1013
28 Alto del Carmen 02-05-2026 06:45 5,2 57 0 0,4 53 0 1013
27 Alto del Carmen 02-05-2026 06:30 5,8 54 0 0,9 53 0 1012,8
26 Alto del Carmen 02-05-2026 06:15 6,2 53 0 0 53 0 1012,9
25 Alto del Carmen 02-05-2026 06:00 6,2 54 0 0 53 0 1012,8
24 Alto del Carmen 02-05-2026 05:45 5,8 53 0 0,4 53 0 1012,7
23 Alto del Carmen 02-05-2026 05:30 5,9 55 0 0,9 53 0 1012,8
22 Alto del Carmen 02-05-2026 05:15 6,5 54 0 0,4 51 0 1012,6
21 Alto del Carmen 02-05-2026 05:00 6,4 54 0 0 51 0 1012,5
20 Alto del Carmen 02-05-2026 04:45 6,4 54 0 0 51 0 1012,6
19 Alto del Carmen 02-05-2026 04:30 7,3 52 0 0,9 51 0 1012,5
18 Alto del Carmen 02-05-2026 04:15 7,1 51 0 0,9 51 0 1012,5
17 Alto del Carmen 02-05-2026 04:00 7,5 51 0 0 51 0 1012,7
16 Alto del Carmen 02-05-2026 03:45 6,9 53 0 0,4 51 0 1012,7
15 Alto del Carmen 02-05-2026 03:30 7,7 51 0 0 51 0 1012,7
14 Alto del Carmen 02-05-2026 03:15 7,7 52 0 0,4 50 0 1012,7
13 Alto del Carmen 02-05-2026 03:00 7,6 50 0 0,4 50 0 1012,7
12 Alto del Carmen 02-05-2026 02:45 7,8 50 0 0,4 50 0 1012,7
11 Alto del Carmen 02-05-2026 02:30 7,8 51 0 0,4 50 0 1012,7
10 Alto del Carmen 02-05-2026 02:15 7,9 52 0 0 48 0 1012,8
9 Alto del Carmen 02-05-2026 02:00 8,3 50 0 0,4 48 0 1013
8 Alto del Carmen 02-05-2026 01:45 7,5 53 0 0 47 0 1013,1
7 Alto del Carmen 02-05-2026 01:30 7,5 55 0 0,4 47 0 1013
6 Alto del Carmen 02-05-2026 01:15 7,7 55 0 0,4 47 0 1013
5 Alto del Carmen 02-05-2026 01:00 8,2 53 0 0,9 47 0 1013,4
4 Alto del Carmen 02-05-2026 00:45 8,4 53 0 0,9 47 0 1013,6
3 Alto del Carmen 02-05-2026 00:30 8,4 50 0 0 47 0 1013,6
2 Alto del Carmen 02-05-2026 00:15 8,4 54 0 0 43 0 1013,6
1 Alto del Carmen 02-05-2026 00:00 8,4 54 0 0,9 43 0 1013,6